Terminal Aerodrome Forecast
Issued by NWS

Home | Current Version | Previous Version | Graphics & Text | Print | Product List | Glossary On
Versions: 1 2 3 4 5 6 7 8 9 10 11 12 13 14 15 16
869
FTUS43 KICT 152327
TAFCNU
TAF
KCNU 152327Z 1600/1624 34014KT P6SM BKN200
     FM160300 34011KT P6SM SCT100=

USA.gov is the U.S. government's official web portal to all federal, state and local government web resources and services.